Espace membre
Imprimable
Challenges > Delhalle - Dinant, 25/08/2019, BEL - La Descente de la Lesse
Liste des rapports > Delhalle - 20.75km - Classement
Recherche: Page: [1]
59 Entrées
 
Les réclamations ne sont plus acceptées, les résultats sont considérés comme définitifs.
RangNrNomAgeIOCLigueEquipeRéelTempsTkmMoy.ScrPtsLocalité
1.576RIVEZ PIERRE62BELACTELA THURE1:30:401:30:384:23 13.7444954SARS-LA-BUISSIERE
2.12BULTOT CHRISTIAN61BELARCH1:31:401:31:374:25 13.5948943SCHALTIN
3.1984MAHIEU HUGUES64BELCAP BEAURAING1:32:291:32:184:27 13.4951934BEAURAING
4.2135VANDERLINDEN MARC61DEUURBAN TRI TEAM1:33:571:33:574:32 13.2560917UCCLE
5.492DERAVET BERNARD60BEL1:35:161:35:104:36 13.0864903DURNAL
6.4990PIERLOT SERGE61BELRCNAMUR1:39:031:38:514:46 12.6089858VEZIN
7.2000RICHARD ANDRÉ65BEL1:44:031:43:585:01 11.98134797SAINT-SERVAIS (NAMUR)
8.146VAN NEVEL FRANS65BELBEHO1:44:291:44:205:02 11.93140790BRUGGE
9.2323BASTIEN FRANCIS64BELFCWBWILD BIKERS ASBL1:49:131:49:135:16 11.40189731LISOGNE
10.2132LELOUX DOMINIQUE60BEL1:52:131:51:575:24 11.12212698VITRIVAL
11.998COLONVAL JEAN60BELGERPINNES & CO1:52:001:52:005:24 11.12213699GERPINNES
12.2016STASSIN FRANCIS64BEL1:52:561:52:335:26 11.06224687GOUY-LEZ-PIÉTON
13.5006ROSILLON DOMINIQUE62BEL1:53:221:53:045:27 11.01232680SORÉE
14.2263GOOSSE GERARD67BEL1:53:481:53:305:29 10.97238674OSTENDE
15.3522BENOIT MICHEL63BELNAC1:53:371:53:305:29 10.97239675LA LOUVIERE
16.4945GAZENGEL DIDIER61FRA1:56:461:56:375:38 10.68275636LAIFOUR
17.580HOMBROUX MARCEL66BELHANNUT JOGGING1:59:321:59:325:46 10.42315598MONTENAKEN
18.770LEBRUN THIERRY61BELRCNAMUR2:01:162:01:085:51 10.28327580WIERDE
19.911BILON EUSEBE66FRAESM2:03:072:02:385:55 10.15342561MARCHIENNE-AU-PONT
20.702GIOVANNANGELO ALAIN67BELESM2:03:072:03:075:56 10.11347559NIVELLES
21.494MATHY JEAN-LUC66BELRCNAMUR2:03:552:03:505:59 10.06359548NAMUR
22.2057DANIELOU BRUNO61FRAEJCAJURA2:04:482:04:386:01 9.99375535C
23.92HENRY ROBERT62BELDAMPHRC2:04:472:04:426:01 9.98376535FLORENVILLE
24.318STICKER JOHAN60BELESM2:06:192:06:016:05 9.88398514BIERCEE
25.55ROBERTI DE WINGHE MAX64BELARCHRONVAU2:07:452:07:026:08 9.80410500ARCHENNES
26.2102EVRARD JEAN-LUC63BEL2:08:102:07:576:10 9.73419493HAVELANGE
27.676LESTRATE GABRIEL67BELHEIN2:07:582:07:586:11 9.73421493FLORÉE
28.251GODEFRIDI THIERRY68BELMARATHONIEN C-E2:09:122:08:276:12 9.69423484RIXENSART
29.14COLMANT OLIVIER61BELJE COURS A INCOURT2:09:562:09:346:15 9.61432476INCOURT
30.301QUINET JEAN PAUL69BEL2:11:152:11:006:19 9.50445461GILLY
31.296DESSEILLE ERNEST65BELRCNAMUR2:11:452:11:106:20 9.49447457WÉPION
32.2140LOPEZ CELSO60BEL2:12:082:11:116:20 9.49448454ALLEUR
33.2118JANSSENS PHILIPPE65BELWALCOURSE2:12:572:12:206:23 9.41458444WALCOURT
34.2076COLLETTE ALAIN64BELTAF2:13:052:12:276:23 9.40460443MARCHE EN FAMENNE
35.2223DEBAY MICHEL60BEL2:13:372:12:526:25 9.37470435SAMBREVILLE
36.5001FOULON DANIEL61BELRCAE2:13:522:13:246:26 9.33476431NEUPRÉ
37.2041SGALBIERO ORAZIO62ITA2:14:532:14:136:29 9.28483421TUBIZE
38.537ROBILLARD THIBERT63BELRCNAMUR2:15:032:14:536:31 9.23487418NAMUR
39.683DE LEENER JEAN-MARIE65BELRCABWNAC2:16:112:15:586:34 9.16493409LOT
40.747BIDAINE LUC61BELWPRC2:17:202:16:396:36 9.11499399UCCLE
41.2069VANDEZANDE LUC63BELRCNAMUR2:17:392:17:076:37 9.08502395SART-BERNARD (ASSESSE)
42.2123DEWAEL PHILIPPE69BELJAMES2:18:272:17:486:39 9.04509387COUTURE-SAINT-GERMAIN
43.2216LARMINIER CLAUDE65BELSERUNNERS2:18:422:18:016:40 9.02511385LIÈGE
44.4950DEWEZ ALEX63BEL2:19:052:18:186:40 9.00514381ERPENT
45.692ROBERT MICHEL69BELBOUFFIOLS2:19:162:18:576:42 8.96521377GERPINNES
46.4931DEPREZ CHRISTIAN64BELJE COURS À INCOURT2:21:192:20:366:47 8.86536358INCOURT
47.2082CHARLIER BAUDOUIN68BELJ.E.T. TUBIZE2:21:002:20:386:47 8.85538359TUBIZE
48.755VAN HEULENBERGHE FRANK63BEL2:21:562:21:056:48 8.83542351GENT
49.3558ELOY NORBERT64FRA2:24:322:23:526:56 8.65575321JUMET
50.4900MATTHYSSEN JULIEN66BEL2:25:552:25:347:01 8.55593305BRASSCHAAT
51.207CLEMENT JACQUES68BELSPTWAVRE2:31:372:30:477:16 8.26632255COURT SAINT ETIENNE
52.649ALSTEEN MICHEL67BELRCNAMUR2:36:302:36:047:32 7.98663215JAMBES
53.2194TRINE MICHEL60BEL2:38:082:37:437:37 7.89671202MONS
54.9524LEEMANS JEAN-MICHEL62BELLES BAUDETS2:39:302:38:597:40 7.83674193DINANT
55.510GEORGE JEAN-POL68BEL2:41:112:40:587:46 7.73679182BEAUVECHAIN
56.59LIEGEOIS JEAN LOUIS67BEL2:42:182:41:327:48 7.71680176HEVERLEE
57.448ROMAIN BERNARD62BELRONVAU2:48:082:47:118:04 7.45709133CHASTRE
58.2089NOËL GÉRARD67BELARCH3:37:013:35:5610:25 5.777691NATOYE
59.9684DESMET ERIC67BEL3:37:013:36:1610:26 5.767701BREDENE
DNF: abandon; DSQ: disqualifié; Vitesse en km/h
Page: [1]